Hauptseite
METAR-TAF:

METAR-TAF

Flughäfen :

Cork, Irland

Flughafen Cork

Breite: 51-51N, Länge: 008-29W, Höhe: 153 m

Beobachtung

Neuester Wetterbericht von vor 29 Minuten, um 01:00 UTC
Wind 14 kt aus Ost/Südost
Temperatur 5°C
Luftfeuchtigkeit 75%
Luftdruck 1019 hPa
Sichtweite 10 km oder mehr
Leicht bewölkt in der Höhe von 1800 ft
Durchbrochene Bewölkung in der Höhe von 2200 ft

METAR: EICK 250100Z 12014KT 9999 FEW018 BKN022 05/01 Q1019 NOSIG

Zeit: 01:29 (01:29 UTC)

Prognose

Neuester Wetterbericht von vor 2 Stunden und 29 Minuten, um 23:00 UTC
Gültige Prognose vom 25 um 00 UTC bis 25 um 24 UTC
Wind 14 kt aus Ost/Südost
Sichtweite 10 km oder mehr
Leicht bewölkt in der Höhe von 2000 ft
Aufgelockert bewölkt in der Höhe von 2500 ft
Zeitweise
vom 25 um 09 UTC bis 25 um 15 UTC
Wind 16 kt aus Ost/Südost, Böen bis zu 27 kt

TAF: EICK 242300Z 2500/2524 11014KT 9999 FEW020 SCT025 TEMPO 2509/2515 12016G27KT

Wetterbeobachtungen und Prognosen von mehr als 4000 Flughäfen (METAR und TAF Bericht).

Die verfügbaren Stationen werden durch gelbe und rote Markierungen auf der Karte dargestellt.

Führen Sie die Maus auf sie, um den Namen der Station zu sehen.

Darauf klicken, um die Beobachtung von Wetterbeobachtungen und Prognosen zu sehen.

Um die Karte zu ändern : klicken Sie auf den grünen Tasten mit einem schwarzen Kreuz Zum Vergrößern, auf den grünen Button mit einem Gedankenstrich zu verkleinern, oder auf die grünen Pfeile für benachbarte Karten.


METAR-TAF: